createdAt,value
2023-04-23T00:01:25.669Z,10.40
2023-04-23T00:03:58.531Z,10.40
2023-04-23T00:06:26.805Z,10.40
2023-04-23T00:08:55.240Z,10.40
2023-04-23T00:11:22.680Z,10.40
2023-04-23T00:13:50.267Z,10.40
2023-04-23T00:16:20.952Z,10.40
2023-04-23T00:18:48.367Z,10.40
2023-04-23T00:21:15.551Z,10.30
2023-04-23T00:23:42.742Z,10.30
2023-04-23T00:26:10.000Z,10.30
2023-04-23T00:28:37.262Z,10.30
2023-04-23T00:31:04.497Z,10.30
2023-04-23T00:33:31.720Z,10.30
2023-04-23T00:35:58.978Z,10.20
2023-04-23T00:38:26.591Z,10.20
2023-04-23T00:40:53.893Z,10.20
2023-04-23T00:43:21.280Z,10.20
2023-04-23T00:45:49.168Z,10.20
2023-04-23T00:48:16.815Z,10.20
2023-04-23T00:50:44.060Z,10.20
2023-04-23T00:53:11.346Z,10.20
2023-04-23T00:55:38.917Z,10.20
2023-04-23T00:58:07.013Z,10.20
2023-04-23T01:00:43.178Z,10.20
2023-04-23T01:03:10.915Z,10.30
2023-04-23T01:05:40.340Z,10.30
2023-04-23T01:08:08.791Z,10.30
2023-04-23T01:10:36.263Z,10.40
2023-04-23T01:13:04.616Z,10.50
2023-04-23T01:15:31.780Z,10.60
2023-04-23T01:17:59.615Z,10.60
2023-04-23T01:20:27.250Z,10.60
2023-04-23T01:22:54.816Z,10.60
2023-04-23T01:25:22.314Z,10.70
2023-04-23T01:27:49.867Z,10.70
2023-04-23T01:30:19.126Z,10.70
2023-04-23T01:32:48.369Z,10.70
2023-04-23T01:35:15.662Z,10.80
2023-04-23T01:37:44.584Z,10.80
2023-04-23T01:40:12.306Z,10.80
2023-04-23T01:42:40.081Z,10.80
2023-04-23T01:45:08.143Z,10.70
2023-04-23T01:47:36.247Z,10.70
2023-04-23T01:50:05.210Z,10.70
2023-04-23T01:52:32.536Z,10.70
2023-04-23T01:54:59.886Z,10.70
2023-04-23T01:57:27.140Z,10.70
2023-04-23T02:00:04.099Z,10.80
2023-04-23T02:02:42.061Z,10.80
2023-04-23T02:05:13.395Z,10.80
2023-04-23T02:07:41.294Z,10.80
2023-04-23T02:10:09.248Z,10.80
2023-04-23T02:12:37.506Z,10.80
2023-04-23T02:15:06.510Z,10.80
2023-04-23T02:17:34.078Z,10.80
2023-04-23T02:20:02.198Z,10.80
2023-04-23T02:22:29.642Z,10.80
2023-04-23T02:24:58.827Z,10.90
2023-04-23T02:27:26.063Z,11.00
2023-04-23T02:29:53.551Z,11.00
2023-04-23T02:32:20.783Z,11.00
2023-04-23T02:34:47.958Z,11.00
2023-04-23T02:37:15.168Z,11.00
2023-04-23T02:39:42.509Z,11.00
2023-04-23T02:42:09.760Z,11.00
2023-04-23T02:44:37.047Z,11.00
2023-04-23T02:47:04.544Z,11.00
2023-04-23T02:49:31.840Z,10.90
2023-04-23T02:51:59.190Z,11.00
2023-04-23T02:54:26.392Z,11.00
2023-04-23T02:56:53.601Z,10.90
2023-04-23T02:59:20.904Z,11.00
2023-04-23T03:01:48.263Z,11.00
2023-04-23T03:04:15.966Z,10.90
2023-04-23T03:06:43.208Z,10.90
2023-04-23T03:09:10.866Z,10.90
2023-04-23T03:11:38.354Z,10.90
2023-04-23T03:14:06.103Z,10.90
2023-04-23T03:16:33.867Z,11.00
2023-04-23T03:19:01.515Z,10.90
2023-04-23T03:21:28.756Z,10.90
2023-04-23T03:23:56.349Z,11.00
2023-04-23T03:26:23.580Z,11.00
2023-04-23T03:28:51.563Z,11.00
2023-04-23T03:31:18.861Z,11.00
2023-04-23T03:33:46.581Z,11.10
2023-04-23T03:36:15.598Z,11.00
2023-04-23T03:38:43.053Z,11.00
2023-04-23T03:41:10.850Z,11.10
2023-04-23T03:43:38.071Z,11.00
2023-04-23T03:46:05.420Z,11.10
2023-04-23T03:48:38.942Z,11.10
2023-04-23T03:51:11.247Z,11.10
2023-04-23T03:53:49.127Z,11.10
2023-04-23T03:56:37.045Z,11.10
2023-04-23T03:59:15.456Z,11.00
2023-04-23T04:01:44.238Z,11.10
2023-04-23T04:04:11.700Z,11.10
2023-04-23T04:06:39.185Z,11.20
2023-04-23T04:09:08.087Z,11.10
2023-04-23T04:11:35.720Z,11.20
2023-04-23T04:14:02.942Z,11.20
2023-04-23T04:16:30.271Z,11.30
2023-04-23T04:18:57.459Z,11.30
2023-04-23T04:21:28.227Z,11.40
2023-04-23T04:23:56.139Z,11.40
2023-04-23T04:26:23.374Z,11.40
2023-04-23T04:28:51.436Z,11.50
2023-04-23T04:31:20.365Z,11.50
2023-04-23T04:33:48.129Z,11.50
2023-04-23T04:36:15.258Z,11.50
2023-04-23T04:38:43.797Z,11.50
2023-04-23T04:41:11.453Z,11.50
2023-04-23T04:43:39.113Z,11.50
2023-04-23T04:46:07.615Z,11.60
2023-04-23T04:48:35.034Z,11.60
2023-04-23T04:51:02.316Z,11.60
2023-04-23T04:53:29.472Z,11.60
2023-04-23T04:55:56.729Z,11.60
2023-04-23T04:58:23.963Z,11.60
2023-04-23T05:00:52.206Z,11.70
2023-04-23T05:03:20.051Z,11.70
2023-04-23T05:05:51.367Z,11.80
2023-04-23T05:08:21.282Z,11.80
2023-04-23T05:10:50.411Z,11.80
2023-04-23T05:13:17.726Z,11.80
2023-04-23T05:15:46.121Z,11.80
2023-04-23T05:18:13.367Z,11.80
2023-04-23T05:20:41.599Z,11.90
2023-04-23T05:23:08.837Z,11.90
2023-04-23T05:25:36.027Z,12.00
2023-04-23T05:28:03.277Z,12.10
2023-04-23T05:30:30.700Z,12.10
2023-04-23T05:32:58.086Z,12.10
2023-04-23T05:35:25.378Z,12.20
2023-04-23T05:37:52.584Z,12.20
2023-04-23T05:40:19.879Z,12.10
2023-04-23T05:42:47.178Z,12.10
2023-04-23T05:45:14.425Z,12.30
2023-04-23T05:47:41.648Z,12.40
2023-04-23T05:50:11.191Z,12.50
2023-04-23T05:52:39.377Z,12.50
2023-04-23T05:55:09.561Z,12.60
2023-04-23T05:57:38.239Z,12.70
2023-04-23T06:00:09.805Z,12.70
2023-04-23T06:02:41.146Z,12.70
2023-04-23T06:05:09.157Z,12.70
2023-04-23T06:07:36.789Z,12.60
2023-04-23T06:10:05.615Z,12.60
2023-04-23T06:12:32.904Z,12.50
2023-04-23T06:15:00.108Z,12.50
2023-04-23T06:17:27.274Z,12.50
2023-04-23T06:19:54.505Z,12.50
2023-04-23T06:22:21.746Z,12.50
2023-04-23T06:24:48.940Z,12.60
2023-04-23T06:27:16.147Z,12.60
2023-04-23T06:29:47.752Z,12.70
2023-04-23T06:32:14.978Z,12.70
2023-04-23T06:34:57.100Z,12.80
2023-04-23T06:37:29.828Z,12.90
2023-04-23T06:40:00.391Z,13.00
2023-04-23T06:42:27.756Z,13.10
2023-04-23T06:45:17.797Z,13.20
2023-04-23T06:47:45.134Z,13.30
2023-04-23T06:50:12.598Z,13.30
2023-04-23T06:52:39.895Z,13.40
2023-04-23T06:55:08.039Z,13.50
2023-04-23T06:57:36.025Z,13.50
2023-04-23T07:00:05.595Z,13.50
2023-04-23T07:02:37.773Z,13.60
2023-04-23T07:05:05.521Z,13.70
2023-04-23T07:07:32.798Z,13.80
2023-04-23T07:10:00.304Z,13.90
2023-04-23T07:12:27.485Z,14.00
2023-04-23T07:14:54.716Z,14.00
2023-04-23T07:17:22.120Z,14.10
2023-04-23T07:19:49.416Z,14.20
2023-04-23T07:22:16.690Z,14.30
2023-04-23T07:24:44.023Z,14.50
2023-04-23T07:27:11.397Z,14.60
2023-04-23T07:29:38.661Z,14.70
2023-04-23T07:32:05.945Z,14.70
2023-04-23T07:34:34.184Z,14.90
2023-04-23T07:37:05.895Z,15.00
2023-04-23T07:39:33.545Z,15.00
2023-04-23T07:42:02.081Z,15.10
2023-04-23T07:44:29.366Z,15.10
2023-04-23T07:46:56.677Z,15.20
2023-04-23T07:49:23.867Z,15.30
2023-04-23T07:51:51.089Z,15.50
2023-04-23T07:54:18.328Z,15.50
2023-04-23T07:56:45.681Z,15.60
2023-04-23T07:59:12.907Z,15.70
2023-04-23T08:01:41.926Z,15.80
2023-04-23T08:04:09.294Z,16.00
2023-04-23T08:06:36.778Z,16.10
2023-04-23T08:09:06.885Z,16.30
2023-04-23T08:11:34.099Z,16.20
2023-04-23T08:14:04.311Z,16.30
2023-04-23T08:16:31.814Z,16.50
2023-04-23T08:19:05.335Z,16.50
2023-04-23T08:21:33.918Z,16.70
2023-04-23T08:24:02.927Z,16.80
2023-04-23T08:26:31.407Z,16.90
2023-04-23T08:29:00.561Z,16.90
2023-04-23T08:31:27.983Z,17.00
2023-04-23T08:33:56.121Z,17.00
2023-04-23T08:36:23.441Z,16.90
2023-04-23T08:38:50.636Z,17.00
2023-04-23T08:41:19.220Z,17.00
2023-04-23T08:44:11.481Z,17.20
2023-04-23T08:46:43.417Z,17.40
2023-04-23T08:49:18.496Z,17.60
2023-04-23T08:51:52.179Z,17.70
2023-04-23T08:54:26.985Z,17.90
2023-04-23T08:56:57.544Z,18.00
2023-04-23T08:59:26.520Z,18.90
2023-04-23T09:01:53.997Z,20.40
2023-04-23T09:04:22.154Z,22.00
2023-04-23T09:06:49.623Z,24.00
2023-04-23T09:09:19.839Z,24.40
2023-04-23T09:11:47.042Z,24.90
2023-04-23T09:14:14.524Z,25.80
2023-04-23T09:16:42.633Z,26.70
2023-04-23T09:19:11.345Z,27.30
2023-04-23T09:21:41.042Z,28.00
2023-04-23T09:24:14.677Z,28.20
2023-04-23T09:26:49.780Z,28.90
2023-04-23T09:29:19.195Z,29.20
2023-04-23T09:31:47.950Z,29.40
2023-04-23T09:34:19.480Z,29.60
2023-04-23T09:36:50.404Z,29.00
2023-04-23T09:39:23.686Z,27.70
2023-04-23T09:41:53.991Z,28.40
2023-04-23T09:44:26.425Z,28.60
2023-04-23T09:46:53.707Z,28.50
2023-04-23T09:49:21.116Z,29.40
2023-04-23T09:51:49.768Z,29.90
2023-04-23T09:54:22.624Z,29.50
2023-04-23T09:56:51.574Z,28.90
2023-04-23T09:59:32.049Z,28.60
2023-04-23T10:02:08.016Z,27.50
2023-04-23T10:04:36.109Z,27.10
2023-04-23T10:07:18.891Z,26.80
2023-04-23T10:09:47.141Z,26.60
2023-04-23T10:12:28.970Z,26.30
2023-04-23T10:15:07.364Z,26.10
2023-04-23T10:17:39.348Z,26.80
2023-04-23T10:20:08.813Z,27.30
2023-04-23T10:22:38.621Z,28.00
2023-04-23T10:25:10.104Z,28.60
2023-04-23T10:27:53.904Z,29.70
2023-04-23T10:30:23.020Z,29.30
2023-04-23T10:32:51.288Z,28.90
2023-04-23T10:35:18.752Z,28.80
2023-04-23T10:37:48.088Z,28.50
2023-04-23T10:40:21.890Z,28.40
2023-04-23T10:42:50.020Z,28.90
2023-04-23T10:47:49.420Z,28.50
2023-04-23T10:50:23.721Z,27.60
2023-04-23T10:52:53.518Z,26.50
2023-04-23T10:55:29.794Z,25.80
2023-04-23T10:58:07.958Z,25.20
2023-04-23T11:00:41.546Z,25.40
2023-04-23T11:03:45.563Z,25.60
2023-04-23T11:06:17.556Z,25.60
2023-04-23T11:08:56.663Z,24.70
2023-04-23T11:11:41.153Z,24.50
2023-04-23T11:14:15.880Z,24.20
2023-04-23T11:16:43.425Z,24.10
2023-04-23T11:19:17.295Z,24.10
2023-04-23T11:22:14.666Z,23.80
2023-04-23T11:24:43.307Z,23.50
2023-04-23T11:27:12.778Z,23.60
2023-04-23T11:29:42.635Z,23.80
2023-04-23T11:32:13.495Z,24.50
2023-04-23T11:34:43.125Z,25.30
2023-04-23T11:37:15.290Z,25.70
2023-04-23T11:39:47.453Z,25.50
2023-04-23T11:42:15.728Z,25.20
2023-04-23T11:44:44.685Z,24.80
2023-04-23T11:47:14.237Z,24.70
2023-04-23T11:49:43.918Z,24.50
2023-04-23T11:52:12.014Z,24.20
2023-04-23T11:54:42.370Z,24.70
2023-04-23T11:57:10.196Z,25.20
2023-04-23T11:59:37.911Z,24.90
2023-04-23T12:02:05.483Z,24.50
2023-04-23T12:04:33.380Z,23.80
2023-04-23T12:07:02.011Z,23.30
2023-04-23T12:09:31.470Z,22.90
2023-04-23T12:11:58.846Z,22.50
2023-04-23T12:14:30.359Z,22.30
2023-04-23T12:17:08.671Z,21.80
2023-04-23T12:19:36.433Z,21.40
2023-04-23T12:22:04.578Z,20.80
2023-04-23T12:24:49.318Z,20.50
2023-04-23T12:27:20.397Z,20.20
2023-04-23T12:29:48.065Z,20.10
2023-04-23T12:32:15.761Z,20.00
2023-04-23T12:34:53.741Z,20.10
2023-04-23T12:37:28.602Z,20.70
2023-04-23T12:39:59.500Z,21.80
2023-04-23T12:42:27.162Z,23.20
2023-04-23T12:44:57.562Z,24.00
2023-04-23T12:47:24.902Z,24.90
2023-04-23T12:49:54.184Z,25.70
2023-04-23T12:52:21.691Z,26.60
2023-04-23T12:54:52.592Z,26.60
2023-04-23T12:57:23.242Z,26.40
2023-04-23T12:59:50.991Z,25.70
2023-04-23T13:02:18.454Z,25.40
2023-04-23T13:04:46.154Z,25.40
2023-04-23T13:07:13.920Z,25.00
2023-04-23T13:09:41.382Z,24.20
2023-04-23T13:12:08.728Z,23.40
2023-04-23T13:14:36.114Z,23.00
2023-04-23T13:17:03.344Z,22.70
2023-04-23T13:19:31.491Z,22.40
2023-04-23T13:21:58.776Z,22.10
2023-04-23T13:24:25.971Z,22.00
2023-04-23T13:26:53.226Z,21.60
2023-04-23T13:29:20.540Z,21.30
2023-04-23T13:31:47.736Z,21.10
2023-04-23T13:34:14.950Z,21.00
2023-04-23T13:36:42.818Z,20.80
2023-04-23T13:39:13.263Z,20.50
2023-04-23T13:41:41.079Z,20.20
2023-04-23T13:44:08.501Z,19.70
2023-04-23T13:46:35.794Z,18.50
2023-04-23T13:49:03.116Z,17.30
2023-04-23T13:51:35.638Z,16.40
2023-04-23T13:54:03.518Z,15.80
2023-04-23T13:56:31.245Z,15.50
2023-04-23T13:59:18.827Z,15.40
2023-04-23T14:01:50.054Z,15.30
2023-04-23T14:04:18.568Z,15.40
2023-04-23T14:06:46.071Z,15.50
2023-04-23T14:09:13.343Z,15.50
2023-04-23T14:11:41.487Z,15.30
2023-04-23T14:14:08.971Z,15.20
2023-04-23T14:16:36.243Z,15.10
2023-04-23T14:19:03.546Z,15.00
2023-04-23T14:21:30.781Z,14.90
2023-04-23T14:24:02.840Z,14.90
2023-04-23T14:26:47.188Z,14.80
2023-04-23T14:29:39.794Z,14.90
2023-04-23T14:32:07.269Z,14.90
2023-04-23T14:34:37.317Z,14.80
2023-04-23T14:37:05.117Z,14.80
2023-04-23T14:39:33.809Z,14.90
2023-04-23T14:42:01.286Z,15.00
2023-04-23T14:44:29.057Z,15.00
2023-04-23T14:46:56.616Z,15.10
2023-04-23T14:49:24.329Z,15.10
2023-04-23T14:51:57.505Z,15.20
2023-04-23T14:54:25.398Z,15.20
2023-04-23T14:56:52.775Z,15.30
2023-04-23T14:59:20.768Z,15.20
2023-04-23T15:01:48.120Z,15.20
2023-04-23T15:04:15.962Z,15.10
2023-04-23T15:06:43.235Z,15.00
2023-04-23T15:09:10.450Z,14.80
2023-04-23T15:11:38.708Z,14.80
2023-04-23T15:14:20.588Z,14.80
2023-04-23T15:16:49.803Z,14.70
2023-04-23T15:19:18.868Z,14.60
2023-04-23T15:21:47.503Z,14.70
2023-04-23T15:24:15.931Z,14.60
2023-04-23T15:26:44.004Z,14.50
2023-04-23T15:29:13.256Z,14.30
2023-04-23T15:31:40.722Z,14.20
2023-04-23T15:34:09.151Z,14.10
2023-04-23T15:36:37.591Z,14.00
2023-04-23T15:39:06.865Z,13.90
2023-04-23T15:41:37.479Z,13.90
2023-04-23T15:44:10.850Z,13.90
2023-04-23T15:46:38.271Z,13.90
2023-04-23T15:49:05.649Z,14.00
2023-04-23T15:51:33.152Z,14.00
2023-04-23T15:54:02.021Z,14.10
2023-04-23T15:56:29.268Z,14.10
2023-04-23T15:58:57.037Z,14.20
2023-04-23T16:01:26.857Z,14.20
2023-04-23T16:04:09.565Z,14.20
2023-04-23T16:06:37.418Z,14.30
2023-04-23T16:09:08.124Z,14.30
2023-04-23T16:11:36.923Z,14.30
2023-04-23T16:14:05.324Z,14.30
2023-04-23T16:16:32.697Z,14.30
2023-04-23T16:19:00.155Z,14.40
2023-04-23T16:21:27.841Z,14.40
2023-04-23T16:23:55.186Z,14.40
2023-04-23T16:26:22.537Z,14.30
2023-04-23T16:28:52.160Z,14.10
2023-04-23T16:31:28.825Z,14.00
2023-04-23T16:33:56.426Z,14.00
2023-04-23T16:36:23.747Z,13.90
2023-04-23T16:38:50.964Z,13.80
2023-04-23T16:41:20.885Z,13.70
2023-04-23T16:43:48.069Z,13.60
2023-04-23T16:46:18.831Z,13.60
2023-04-23T16:48:47.260Z,13.50
2023-04-23T16:51:14.631Z,13.40
2023-04-23T16:53:41.815Z,13.30
2023-04-23T16:56:09.257Z,13.30
2023-04-23T16:58:36.581Z,13.30
2023-04-23T17:01:03.990Z,13.30
2023-04-23T17:03:31.712Z,13.40
2023-04-23T17:06:18.202Z,13.50
2023-04-23T17:08:45.784Z,13.50
2023-04-23T17:11:13.145Z,13.60
2023-04-23T17:13:43.442Z,13.60
2023-04-23T17:16:10.926Z,13.70
2023-04-23T17:18:38.148Z,13.70
2023-04-23T17:21:05.518Z,13.80
2023-04-23T17:23:32.779Z,13.80
2023-04-23T17:25:59.990Z,13.80
2023-04-23T17:28:27.289Z,13.80
2023-04-23T17:30:55.866Z,13.80
2023-04-23T17:33:23.694Z,13.80
2023-04-23T17:35:52.242Z,13.70
2023-04-23T17:38:22.672Z,13.70
2023-04-23T17:40:51.137Z,13.70
2023-04-23T17:43:19.095Z,13.70
2023-04-23T17:45:47.425Z,13.60
2023-04-23T17:48:15.580Z,13.60
2023-04-23T17:50:43.270Z,13.60
2023-04-23T17:53:10.593Z,13.50
2023-04-23T17:55:37.791Z,13.50
2023-04-23T17:58:09.552Z,13.50
2023-04-23T18:00:41.993Z,13.50
2023-04-23T18:03:09.850Z,13.50
2023-04-23T18:05:37.298Z,13.50
2023-04-23T18:08:06.826Z,13.50
2023-04-23T18:10:34.267Z,13.50
2023-04-23T18:13:05.234Z,13.50
2023-04-23T18:15:32.480Z,13.60
2023-04-23T18:17:59.998Z,13.60
2023-04-23T18:20:27.917Z,13.60
2023-04-23T18:22:55.153Z,13.60
2023-04-23T18:25:24.987Z,13.60
2023-04-23T18:27:52.385Z,13.60
2023-04-23T18:30:23.198Z,13.60
2023-04-23T18:32:59.363Z,13.50
2023-04-23T18:35:26.774Z,13.40
2023-04-23T18:37:59.284Z,13.40
2023-04-23T18:40:27.045Z,13.40
2023-04-23T18:42:54.568Z,13.40
2023-04-23T18:45:21.949Z,13.40
2023-04-23T18:48:02.980Z,13.40
2023-04-23T18:50:48.521Z,13.50
2023-04-23T18:53:15.957Z,13.50
2023-04-23T18:55:43.190Z,13.50
2023-04-23T18:58:10.668Z,13.50
2023-04-23T19:00:37.993Z,13.50
2023-04-23T19:03:15.193Z,13.50
2023-04-23T19:05:47.095Z,13.50
2023-04-23T19:08:14.439Z,13.50
2023-04-23T19:10:41.631Z,13.50
2023-04-23T19:13:08.862Z,13.50
2023-04-23T19:15:36.191Z,13.50
2023-04-23T19:18:06.016Z,13.50
2023-04-23T19:20:33.284Z,13.50
2023-04-23T19:23:00.649Z,13.60
2023-04-23T19:25:27.854Z,13.60
2023-04-23T19:27:55.017Z,13.50
2023-04-23T19:30:22.351Z,13.60
2023-04-23T19:32:49.588Z,13.60
2023-04-23T19:35:17.073Z,13.60
2023-04-23T19:37:44.211Z,13.60
2023-04-23T19:40:11.907Z,13.60
2023-04-23T19:42:39.330Z,13.60
2023-04-23T19:45:07.571Z,13.70
2023-04-23T19:47:38.697Z,13.60
2023-04-23T19:50:07.377Z,13.60
2023-04-23T19:52:34.958Z,13.60
2023-04-23T19:55:02.545Z,13.70
2023-04-23T19:57:29.869Z,13.70
2023-04-23T19:59:57.217Z,13.60
2023-04-23T20:02:24.594Z,13.60
2023-04-23T20:04:51.874Z,13.70
2023-04-23T20:07:19.153Z,13.60
2023-04-23T20:09:46.360Z,13.60
2023-04-23T20:12:14.288Z,13.60
2023-04-23T20:14:42.581Z,13.60
2023-04-23T20:17:10.211Z,13.60
2023-04-23T20:19:38.345Z,13.60
2023-04-23T20:22:06.721Z,13.70
2023-04-23T20:24:35.334Z,13.70
2023-04-23T20:27:02.538Z,13.70
2023-04-23T20:29:30.828Z,13.70
2023-04-23T20:31:58.212Z,13.70
2023-04-23T20:34:26.026Z,13.70
2023-04-23T20:36:53.355Z,13.60
2023-04-23T20:39:24.123Z,13.60
2023-04-23T20:41:52.349Z,13.50
2023-04-23T20:44:22.638Z,13.50
2023-04-23T20:46:51.222Z,13.40
2023-04-23T20:49:18.767Z,13.50
2023-04-23T20:51:46.616Z,13.40
2023-04-23T20:54:13.955Z,13.40
2023-04-23T20:56:41.209Z,13.40
2023-04-23T20:59:08.495Z,13.40
2023-04-23T21:01:36.843Z,13.40
2023-04-23T21:04:04.256Z,13.40
2023-04-23T21:06:31.613Z,13.40
2023-04-23T21:08:59.073Z,13.50
2023-04-23T21:11:26.806Z,13.50
2023-04-23T21:13:55.822Z,13.40
2023-04-23T21:16:23.203Z,13.50
2023-04-23T21:18:51.164Z,13.50
2023-04-23T21:21:18.419Z,13.50
2023-04-23T21:23:46.471Z,13.50
2023-04-23T21:26:13.742Z,13.50
2023-04-23T21:28:41.030Z,13.50
2023-04-23T21:31:13.766Z,13.50
2023-04-23T21:33:41.138Z,13.50
2023-04-23T21:36:08.463Z,13.50
2023-04-23T21:38:35.665Z,13.50
2023-04-23T21:41:03.283Z,13.60
2023-04-23T21:43:32.100Z,13.60
2023-04-23T21:45:59.604Z,13.60
2023-04-23T21:48:26.841Z,13.70
2023-04-23T21:50:55.111Z,13.60
2023-04-23T21:53:22.470Z,13.70
2023-04-23T21:55:49.680Z,13.60
2023-04-23T21:58:18.035Z,13.60
2023-04-23T22:00:46.259Z,13.50
2023-04-23T22:03:16.178Z,13.50
2023-04-23T22:05:52.211Z,13.50
2023-04-23T22:08:19.531Z,13.50
2023-04-23T22:10:46.752Z,13.50
2023-04-23T22:13:15.015Z,13.50
2023-04-23T22:15:42.402Z,13.40
2023-04-23T22:18:09.894Z,13.40
2023-04-23T22:20:38.252Z,13.40
2023-04-23T22:23:05.539Z,13.30
2023-04-23T22:25:32.861Z,13.30
2023-04-23T22:28:00.140Z,13.20
2023-04-23T22:30:27.482Z,13.20
2023-04-23T22:32:54.697Z,13.20
2023-04-23T22:35:22.013Z,13.10
2023-04-23T22:37:49.506Z,13.10
2023-04-23T22:40:16.877Z,13.10
2023-04-23T22:42:44.302Z,13.10
2023-04-23T22:45:11.682Z,13.10
2023-04-23T22:47:39.254Z,13.00
2023-04-23T22:50:07.775Z,13.00
2023-04-23T22:52:35.372Z,13.00
2023-04-23T22:55:02.578Z,13.00
2023-04-23T22:57:30.728Z,13.00
2023-04-23T22:59:57.911Z,13.00
2023-04-23T23:02:26.670Z,13.00
2023-04-23T23:04:54.053Z,13.00
2023-04-23T23:07:21.619Z,13.00
2023-04-23T23:09:48.873Z,13.00
2023-04-23T23:12:16.197Z,13.10
2023-04-23T23:14:43.446Z,13.10
2023-04-23T23:17:10.819Z,13.10
2023-04-23T23:19:38.171Z,13.00
2023-04-23T23:22:06.112Z,13.10
2023-04-23T23:24:34.641Z,13.10
2023-04-23T23:27:02.596Z,13.10
2023-04-23T23:29:29.864Z,13.10
2023-04-23T23:31:57.891Z,13.10
2023-04-23T23:34:25.181Z,13.10
2023-04-23T23:36:52.489Z,13.20
2023-04-23T23:39:20.496Z,13.20
2023-04-23T23:41:47.904Z,13.20
2023-04-23T23:44:16.458Z,13.20
2023-04-23T23:46:43.741Z,13.20
2023-04-23T23:49:11.339Z,13.20
2023-04-23T23:51:38.605Z,13.20
2023-04-23T23:54:06.269Z,13.60
2023-04-23T23:56:33.491Z,13.30
2023-04-23T23:59:00.881Z,13.30
